sensor_id;sensor_type;location;lat;lon;timestamp;P1;durP1;ratioP1;P2;durP2;ratioP2
73699;SDS011;62005;50.082;8.988;2024-03-08T00:00:33;13.65;;;7.13;;
73699;SDS011;62005;50.082;8.988;2024-03-08T00:02:59;11.98;;;6.28;;
73699;SDS011;62005;50.082;8.988;2024-03-08T00:05:27;12.20;;;6.15;;
73699;SDS011;62005;50.082;8.988;2024-03-08T00:07:52;16.27;;;7.25;;
73699;SDS011;62005;50.082;8.988;2024-03-08T00:10:18;15.82;;;7.28;;
73699;SDS011;62005;50.082;8.988;2024-03-08T00:12:45;14.57;;;5.93;;
73699;SDS011;62005;50.082;8.988;2024-03-08T00:15:12;14.52;;;6.47;;
73699;SDS011;62005;50.082;8.988;2024-03-08T00:17:39;14.30;;;6.65;;
73699;SDS011;62005;50.082;8.988;2024-03-08T00:20:05;16.73;;;7.45;;
73699;SDS011;62005;50.082;8.988;2024-03-08T00:22:37;13.43;;;8.30;;
73699;SDS011;62005;50.082;8.988;2024-03-08T00:25:06;15.30;;;7.38;;
73699;SDS011;62005;50.082;8.988;2024-03-08T00:27:35;12.77;;;8.00;;
73699;SDS011;62005;50.082;8.988;2024-03-08T00:30:04;13.63;;;6.65;;
73699;SDS011;62005;50.082;8.988;2024-03-08T00:32:30;14.02;;;7.03;;
73699;SDS011;62005;50.082;8.988;2024-03-08T00:34:56;13.77;;;5.78;;
73699;SDS011;62005;50.082;8.988;2024-03-08T00:37:22;14.32;;;6.53;;
73699;SDS011;62005;50.082;8.988;2024-03-08T00:39:48;15.13;;;7.72;;
73699;SDS011;62005;50.082;8.988;2024-03-08T00:42:17;13.18;;;6.28;;
73699;SDS011;62005;50.082;8.988;2024-03-08T00:44:43;13.23;;;6.47;;
73699;SDS011;62005;50.082;8.988;2024-03-08T00:47:08;16.45;;;6.95;;
73699;SDS011;62005;50.082;8.988;2024-03-08T00:49:34;11.93;;;6.50;;
73699;SDS011;62005;50.082;8.988;2024-03-08T00:52:01;11.88;;;6.55;;
73699;SDS011;62005;50.082;8.988;2024-03-08T00:54:27;12.55;;;6.55;;
73699;SDS011;62005;50.082;8.988;2024-03-08T00:56:53;13.25;;;6.07;;
73699;SDS011;62005;50.082;8.988;2024-03-08T00:59:18;15.02;;;6.97;;
73699;SDS011;62005;50.082;8.988;2024-03-08T01:01:44;15.18;;;6.68;;
73699;SDS011;62005;50.082;8.988;2024-03-08T01:04:10;16.85;;;6.65;;
73699;SDS011;62005;50.082;8.988;2024-03-08T01:06:36;15.82;;;7.05;;
73699;SDS011;62005;50.082;8.988;2024-03-08T01:09:02;16.77;;;7.05;;
73699;SDS011;62005;50.082;8.988;2024-03-08T01:11:28;15.77;;;6.97;;
73699;SDS011;62005;50.082;8.988;2024-03-08T01:13:53;13.60;;;6.55;;
73699;SDS011;62005;50.082;8.988;2024-03-08T01:16:19;16.58;;;7.00;;
73699;SDS011;62005;50.082;8.988;2024-03-08T01:18:47;14.57;;;7.25;;
73699;SDS011;62005;50.082;8.988;2024-03-08T01:21:13;14.00;;;7.15;;
73699;SDS011;62005;50.082;8.988;2024-03-08T01:23:38;15.68;;;7.13;;
73699;SDS011;62005;50.082;8.988;2024-03-08T01:26:04;13.63;;;7.55;;
73699;SDS011;62005;50.082;8.988;2024-03-08T01:28:29;14.63;;;6.65;;
73699;SDS011;62005;50.082;8.988;2024-03-08T01:30:55;15.57;;;9.27;;
73699;SDS011;62005;50.082;8.988;2024-03-08T01:33:24;14.57;;;6.97;;
73699;SDS011;62005;50.082;8.988;2024-03-08T01:35:53;14.32;;;7.20;;
73699;SDS011;62005;50.082;8.988;2024-03-08T01:38:19;14.55;;;6.80;;
73699;SDS011;62005;50.082;8.988;2024-03-08T01:40:48;14.90;;;6.78;;
73699;SDS011;62005;50.082;8.988;2024-03-08T01:43:35;15.00;;;7.35;;
73699;SDS011;62005;50.082;8.988;2024-03-08T01:46:00;15.75;;;7.18;;
73699;SDS011;62005;50.082;8.988;2024-03-08T01:48:29;15.52;;;6.65;;
73699;SDS011;62005;50.082;8.988;2024-03-08T01:50:56;13.65;;;6.68;;
73699;SDS011;62005;50.082;8.988;2024-03-08T01:53:23;15.23;;;8.32;;
73699;SDS011;62005;50.082;8.988;2024-03-08T01:55:50;15.55;;;6.68;;
73699;SDS011;62005;50.082;8.988;2024-03-08T01:58:19;16.73;;;8.30;;
73699;SDS011;62005;50.082;8.988;2024-03-08T02:00:47;16.02;;;7.35;;
73699;SDS011;62005;50.082;8.988;2024-03-08T02:03:16;15.98;;;7.78;;
73699;SDS011;62005;50.082;8.988;2024-03-08T02:05:42;15.23;;;7.07;;
73699;SDS011;62005;50.082;8.988;2024-03-08T02:08:08;14.13;;;6.43;;
73699;SDS011;62005;50.082;8.988;2024-03-08T02:10:43;13.98;;;7.22;;
73699;SDS011;62005;50.082;8.988;2024-03-08T02:13:10;18.02;;;7.95;;
73699;SDS011;62005;50.082;8.988;2024-03-08T02:15:55;16.63;;;7.97;;
73699;SDS011;62005;50.082;8.988;2024-03-08T02:18:24;15.85;;;7.45;;
73699;SDS011;62005;50.082;8.988;2024-03-08T02:20:53;14.48;;;6.15;;
73699;SDS011;62005;50.082;8.988;2024-03-08T02:23:22;15.55;;;6.90;;
73699;SDS011;62005;50.082;8.988;2024-03-08T02:25:52;18.08;;;7.68;;
73699;SDS011;62005;50.082;8.988;2024-03-08T02:28:19;16.23;;;7.75;;
73699;SDS011;62005;50.082;8.988;2024-03-08T02:30:48;15.30;;;6.97;;
73699;SDS011;62005;50.082;8.988;2024-03-08T02:33:15;12.90;;;7.03;;
73699;SDS011;62005;50.082;8.988;2024-03-08T02:35:43;13.85;;;7.43;;
73699;SDS011;62005;50.082;8.988;2024-03-08T02:38:13;16.42;;;7.80;;
73699;SDS011;62005;50.082;8.988;2024-03-08T02:40:41;14.57;;;7.47;;
73699;SDS011;62005;50.082;8.988;2024-03-08T02:43:08;18.70;;;8.32;;
73699;SDS011;62005;50.082;8.988;2024-03-08T02:45:37;16.35;;;7.97;;
73699;SDS011;62005;50.082;8.988;2024-03-08T02:48:04;21.23;;;8.02;;
73699;SDS011;62005;50.082;8.988;2024-03-08T02:50:31;14.68;;;7.82;;
73699;SDS011;62005;50.082;8.988;2024-03-08T02:52:57;17.65;;;8.68;;
73699;SDS011;62005;50.082;8.988;2024-03-08T02:55:23;14.10;;;7.60;;
73699;SDS011;62005;50.082;8.988;2024-03-08T02:57:50;14.63;;;7.63;;
73699;SDS011;62005;50.082;8.988;2024-03-08T03:00:16;20.65;;;7.70;;
73699;SDS011;62005;50.082;8.988;2024-03-08T03:02:44;15.57;;;7.85;;
73699;SDS011;62005;50.082;8.988;2024-03-08T03:05:10;16.85;;;8.63;;
73699;SDS011;62005;50.082;8.988;2024-03-08T03:07:36;14.30;;;7.68;;
73699;SDS011;62005;50.082;8.988;2024-03-08T03:10:02;14.18;;;7.68;;
73699;SDS011;62005;50.082;8.988;2024-03-08T03:12:29;20.80;;;8.18;;
73699;SDS011;62005;50.082;8.988;2024-03-08T03:14:55;15.57;;;7.55;;
73699;SDS011;62005;50.082;8.988;2024-03-08T03:17:22;13.57;;;6.53;;
73699;SDS011;62005;50.082;8.988;2024-03-08T03:19:51;16.42;;;8.38;;
73699;SDS011;62005;50.082;8.988;2024-03-08T03:22:17;16.75;;;7.80;;
73699;SDS011;62005;50.082;8.988;2024-03-08T03:24:43;16.92;;;8.43;;
73699;SDS011;62005;50.082;8.988;2024-03-08T03:27:11;14.90;;;7.53;;
73699;SDS011;62005;50.082;8.988;2024-03-08T03:29:41;18.55;;;9.70;;
73699;SDS011;62005;50.082;8.988;2024-03-08T03:32:10;16.77;;;8.13;;
73699;SDS011;62005;50.082;8.988;2024-03-08T03:34:39;16.23;;;7.20;;
73699;SDS011;62005;50.082;8.988;2024-03-08T03:37:05;13.40;;;7.20;;
73699;SDS011;62005;50.082;8.988;2024-03-08T03:39:33;18.38;;;8.38;;
73699;SDS011;62005;50.082;8.988;2024-03-08T03:42:13;16.67;;;7.35;;
73699;SDS011;62005;50.082;8.988;2024-03-08T03:44:39;20.02;;;8.45;;
73699;SDS011;62005;50.082;8.988;2024-03-08T03:47:05;15.93;;;7.80;;
73699;SDS011;62005;50.082;8.988;2024-03-08T03:49:32;17.45;;;7.82;;
73699;SDS011;62005;50.082;8.988;2024-03-08T03:51:58;16.42;;;8.15;;
73699;SDS011;62005;50.082;8.988;2024-03-08T03:54:24;16.10;;;7.78;;
73699;SDS011;62005;50.082;8.988;2024-03-08T03:56:49;17.90;;;8.15;;
73699;SDS011;62005;50.082;8.988;2024-03-08T03:59:18;17.15;;;7.68;;
73699;SDS011;62005;50.082;8.988;2024-03-08T04:01:43;15.68;;;7.70;;
73699;SDS011;62005;50.082;8.988;2024-03-08T04:04:09;16.77;;;7.53;;
73699;SDS011;62005;50.082;8.988;2024-03-08T04:06:35;16.70;;;7.50;;
73699;SDS011;62005;50.082;8.988;2024-03-08T04:09:00;16.48;;;8.13;;
73699;SDS011;62005;50.082;8.988;2024-03-08T04:11:26;16.75;;;7.75;;
73699;SDS011;62005;50.082;8.988;2024-03-08T04:13:51;17.40;;;8.50;;
73699;SDS011;62005;50.082;8.988;2024-03-08T04:16:17;16.98;;;8.10;;
73699;SDS011;62005;50.082;8.988;2024-03-08T04:18:44;18.05;;;8.00;;
73699;SDS011;62005;50.082;8.988;2024-03-08T04:21:09;19.95;;;8.50;;
73699;SDS011;62005;50.082;8.988;2024-03-08T04:23:34;17.92;;;8.38;;
73699;SDS011;62005;50.082;8.988;2024-03-08T04:26:01;17.27;;;7.72;;
73699;SDS011;62005;50.082;8.988;2024-03-08T04:28:29;15.82;;;8.32;;
73699;SDS011;62005;50.082;8.988;2024-03-08T04:30:54;16.02;;;7.72;;
73699;SDS011;62005;50.082;8.988;2024-03-08T04:33:20;18.70;;;8.57;;
73699;SDS011;62005;50.082;8.988;2024-03-08T04:35:46;15.10;;;7.47;;
73699;SDS011;62005;50.082;8.988;2024-03-08T04:38:12;17.23;;;7.93;;
73699;SDS011;62005;50.082;8.988;2024-03-08T04:40:37;19.17;;;8.10;;
73699;SDS011;62005;50.082;8.988;2024-03-08T04:43:03;16.67;;;8.77;;
73699;SDS011;62005;50.082;8.988;2024-03-08T04:45:29;19.63;;;8.10;;
73699;SDS011;62005;50.082;8.988;2024-03-08T04:47:54;17.88;;;8.05;;
73699;SDS011;62005;50.082;8.988;2024-03-08T04:50:20;15.70;;;8.05;;
73699;SDS011;62005;50.082;8.988;2024-03-08T04:52:45;15.27;;;7.55;;
73699;SDS011;62005;50.082;8.988;2024-03-08T04:55:11;16.23;;;7.70;;
73699;SDS011;62005;50.082;8.988;2024-03-08T04:57:37;16.25;;;7.70;;
73699;SDS011;62005;50.082;8.988;2024-03-08T05:00:03;14.90;;;8.10;;
73699;SDS011;62005;50.082;8.988;2024-03-08T05:02:35;17.00;;;9.30;;
73699;SDS011;62005;50.082;8.988;2024-03-08T05:05:01;16.60;;;7.78;;
73699;SDS011;62005;50.082;8.988;2024-03-08T05:07:27;20.20;;;8.30;;
73699;SDS011;62005;50.082;8.988;2024-03-08T05:09:52;19.67;;;8.15;;
73699;SDS011;62005;50.082;8.988;2024-03-08T05:12:18;15.90;;;7.78;;
73699;SDS011;62005;50.082;8.988;2024-03-08T05:14:45;15.52;;;7.28;;
73699;SDS011;62005;50.082;8.988;2024-03-08T05:17:14;17.25;;;8.38;;
73699;SDS011;62005;50.082;8.988;2024-03-08T05:19:40;15.73;;;7.25;;
73699;SDS011;62005;50.082;8.988;2024-03-08T05:22:05;14.68;;;6.93;;
73699;SDS011;62005;50.082;8.988;2024-03-08T05:24:31;15.77;;;6.93;;
73699;SDS011;62005;50.082;8.988;2024-03-08T05:26:56;14.88;;;6.82;;
73699;SDS011;62005;50.082;8.988;2024-03-08T05:29:21;16.67;;;7.30;;
73699;SDS011;62005;50.082;8.988;2024-03-08T05:31:49;19.27;;;8.55;;
73699;SDS011;62005;50.082;8.988;2024-03-08T05:34:17;16.90;;;8.98;;
73699;SDS011;62005;50.082;8.988;2024-03-08T05:36:44;15.10;;;7.82;;
73699;SDS011;62005;50.082;8.988;2024-03-08T05:39:14;16.50;;;7.68;;
73699;SDS011;62005;50.082;8.988;2024-03-08T05:41:40;17.85;;;7.03;;
73699;SDS011;62005;50.082;8.988;2024-03-08T05:44:06;15.60;;;7.60;;
73699;SDS011;62005;50.082;8.988;2024-03-08T05:46:33;17.17;;;8.00;;
73699;SDS011;62005;50.082;8.988;2024-03-08T05:48:59;18.50;;;7.97;;
73699;SDS011;62005;50.082;8.988;2024-03-08T05:51:24;16.77;;;7.78;;
73699;SDS011;62005;50.082;8.988;2024-03-08T05:53:52;17.52;;;8.05;;
73699;SDS011;62005;50.082;8.988;2024-03-08T05:56:18;16.60;;;7.95;;
73699;SDS011;62005;50.082;8.988;2024-03-08T05:58:44;16.88;;;8.40;;
73699;SDS011;62005;50.082;8.988;2024-03-08T06:01:10;17.70;;;7.63;;
73699;SDS011;62005;50.082;8.988;2024-03-08T06:03:37;16.58;;;8.15;;
73699;SDS011;62005;50.082;8.988;2024-03-08T06:06:11;14.48;;;7.32;;
73699;SDS011;62005;50.082;8.988;2024-03-08T06:08:37;17.80;;;8.30;;
73699;SDS011;62005;50.082;8.988;2024-03-08T06:11:03;18.33;;;7.97;;
73699;SDS011;62005;50.082;8.988;2024-03-08T06:13:29;15.93;;;8.93;;
73699;SDS011;62005;50.082;8.988;2024-03-08T06:15:56;20.02;;;8.43;;
73699;SDS011;62005;50.082;8.988;2024-03-08T06:18:22;18.77;;;8.20;;
73699;SDS011;62005;50.082;8.988;2024-03-08T06:20:47;18.00;;;8.07;;
73699;SDS011;62005;50.082;8.988;2024-03-08T06:23:13;14.80;;;7.85;;
73699;SDS011;62005;50.082;8.988;2024-03-08T06:25:43;14.60;;;8.48;;
73699;SDS011;62005;50.082;8.988;2024-03-08T06:28:09;16.52;;;8.18;;
73699;SDS011;62005;50.082;8.988;2024-03-08T06:30:34;25.33;;;8.30;;
73699;SDS011;62005;50.082;8.988;2024-03-08T06:33:00;19.08;;;8.65;;
73699;SDS011;62005;50.082;8.988;2024-03-08T06:35:25;18.38;;;8.52;;
73699;SDS011;62005;50.082;8.988;2024-03-08T06:37:50;21.73;;;8.88;;
73699;SDS011;62005;50.082;8.988;2024-03-08T06:40:16;21.98;;;8.80;;
73699;SDS011;62005;50.082;8.988;2024-03-08T06:42:42;20.13;;;8.60;;
73699;SDS011;62005;50.082;8.988;2024-03-08T06:45:08;18.02;;;8.35;;
73699;SDS011;62005;50.082;8.988;2024-03-08T06:47:35;17.25;;;8.63;;
73699;SDS011;62005;50.082;8.988;2024-03-08T06:50:02;16.92;;;8.48;;
73699;SDS011;62005;50.082;8.988;2024-03-08T06:52:28;18.75;;;8.30;;
73699;SDS011;62005;50.082;8.988;2024-03-08T06:54:54;14.45;;;8.25;;
73699;SDS011;62005;50.082;8.988;2024-03-08T06:57:20;15.82;;;8.20;;
73699;SDS011;62005;50.082;8.988;2024-03-08T06:59:47;19.42;;;8.35;;
73699;SDS011;62005;50.082;8.988;2024-03-08T07:02:13;20.48;;;9.98;;
73699;SDS011;62005;50.082;8.988;2024-03-08T07:04:38;19.00;;;9.23;;
73699;SDS011;62005;50.082;8.988;2024-03-08T07:07:04;18.23;;;8.90;;
73699;SDS011;62005;50.082;8.988;2024-03-08T07:09:30;18.33;;;8.18;;
73699;SDS011;62005;50.082;8.988;2024-03-08T07:11:56;17.60;;;8.15;;
73699;SDS011;62005;50.082;8.988;2024-03-08T07:14:22;16.38;;;7.75;;
73699;SDS011;62005;50.082;8.988;2024-03-08T07:16:48;17.65;;;8.75;;
73699;SDS011;62005;50.082;8.988;2024-03-08T07:19:14;17.98;;;8.55;;
73699;SDS011;62005;50.082;8.988;2024-03-08T07:21:40;16.02;;;8.73;;
73699;SDS011;62005;50.082;8.988;2024-03-08T07:24:07;15.25;;;8.15;;
73699;SDS011;62005;50.082;8.988;2024-03-08T07:26:41;17.55;;;9.40;;
73699;SDS011;62005;50.082;8.988;2024-03-08T07:29:07;17.88;;;8.98;;
73699;SDS011;62005;50.082;8.988;2024-03-08T07:31:33;16.52;;;8.38;;
73699;SDS011;62005;50.082;8.988;2024-03-08T07:34:17;18.02;;;8.48;;
73699;SDS011;62005;50.082;8.988;2024-03-08T07:36:43;17.38;;;8.82;;
73699;SDS011;62005;50.082;8.988;2024-03-08T07:39:08;19.77;;;8.82;;
73699;SDS011;62005;50.082;8.988;2024-03-08T07:41:37;16.00;;;8.25;;
73699;SDS011;62005;50.082;8.988;2024-03-08T07:44:10;19.60;;;8.82;;
73699;SDS011;62005;50.082;8.988;2024-03-08T07:46:39;20.02;;;8.50;;
73699;SDS011;62005;50.082;8.988;2024-03-08T07:49:06;20.35;;;8.63;;
73699;SDS011;62005;50.082;8.988;2024-03-08T07:51:31;15.98;;;7.97;;
73699;SDS011;62005;50.082;8.988;2024-03-08T07:53:59;15.27;;;7.80;;
73699;SDS011;62005;50.082;8.988;2024-03-08T07:56:25;17.60;;;7.82;;
73699;SDS011;62005;50.082;8.988;2024-03-08T07:58:51;20.92;;;9.07;;
73699;SDS011;62005;50.082;8.988;2024-03-08T08:01:16;17.73;;;9.70;;
73699;SDS011;62005;50.082;8.988;2024-03-08T08:03:43;19.33;;;8.98;;
73699;SDS011;62005;50.082;8.988;2024-03-08T08:06:09;18.02;;;9.52;;
73699;SDS011;62005;50.082;8.988;2024-03-08T08:08:41;16.85;;;8.32;;
73699;SDS011;62005;50.082;8.988;2024-03-08T08:11:07;20.83;;;8.80;;
73699;SDS011;62005;50.082;8.988;2024-03-08T08:13:34;19.85;;;8.82;;
73699;SDS011;62005;50.082;8.988;2024-03-08T08:16:01;14.65;;;8.05;;
73699;SDS011;62005;50.082;8.988;2024-03-08T08:18:27;16.95;;;8.77;;
73699;SDS011;62005;50.082;8.988;2024-03-08T08:20:54;19.77;;;8.07;;
73699;SDS011;62005;50.082;8.988;2024-03-08T08:23:28;17.20;;;7.93;;
73699;SDS011;62005;50.082;8.988;2024-03-08T08:25:56;17.10;;;7.55;;
73699;SDS011;62005;50.082;8.988;2024-03-08T08:28:21;18.63;;;8.38;;
73699;SDS011;62005;50.082;8.988;2024-03-08T08:30:47;16.00;;;8.55;;
73699;SDS011;62005;50.082;8.988;2024-03-08T08:33:14;15.05;;;7.00;;
73699;SDS011;62005;50.082;8.988;2024-03-08T08:35:40;14.23;;;7.32;;
73699;SDS011;62005;50.082;8.988;2024-03-08T08:38:05;16.08;;;7.65;;
73699;SDS011;62005;50.082;8.988;2024-03-08T08:40:32;16.55;;;8.00;;
73699;SDS011;62005;50.082;8.988;2024-03-08T08:42:59;13.95;;;7.75;;
73699;SDS011;62005;50.082;8.988;2024-03-08T08:45:24;17.25;;;7.60;;
73699;SDS011;62005;50.082;8.988;2024-03-08T08:47:53;15.50;;;8.38;;
73699;SDS011;62005;50.082;8.988;2024-03-08T08:50:28;15.40;;;7.18;;
73699;SDS011;62005;50.082;8.988;2024-03-08T08:52:57;14.30;;;7.70;;
73699;SDS011;62005;50.082;8.988;2024-03-08T08:55:26;14.52;;;7.18;;
73699;SDS011;62005;50.082;8.988;2024-03-08T08:58:02;16.73;;;8.23;;
73699;SDS011;62005;50.082;8.988;2024-03-08T09:00:28;16.63;;;7.45;;
73699;SDS011;62005;50.082;8.988;2024-03-08T09:02:56;12.68;;;7.15;;
73699;SDS011;62005;50.082;8.988;2024-03-08T09:05:23;13.82;;;6.97;;
73699;SDS011;62005;50.082;8.988;2024-03-08T09:07:49;20.58;;;7.68;;
73699;SDS011;62005;50.082;8.988;2024-03-08T09:10:15;13.68;;;7.40;;
73699;SDS011;62005;50.082;8.988;2024-03-08T09:12:43;14.38;;;7.05;;
73699;SDS011;62005;50.082;8.988;2024-03-08T09:15:12;14.48;;;7.13;;
73699;SDS011;62005;50.082;8.988;2024-03-08T09:17:38;15.13;;;7.05;;
73699;SDS011;62005;50.082;8.988;2024-03-08T09:20:08;15.43;;;7.25;;
73699;SDS011;62005;50.082;8.988;2024-03-08T09:22:46;14.00;;;6.97;;
73699;SDS011;62005;50.082;8.988;2024-03-08T09:25:11;14.60;;;7.40;;
73699;SDS011;62005;50.082;8.988;2024-03-08T09:27:37;16.08;;;7.13;;
73699;SDS011;62005;50.082;8.988;2024-03-08T09:30:03;15.93;;;7.28;;
73699;SDS011;62005;50.082;8.988;2024-03-08T09:32:29;17.90;;;7.20;;
73699;SDS011;62005;50.082;8.988;2024-03-08T09:34:55;16.33;;;6.88;;
73699;SDS011;62005;50.082;8.988;2024-03-08T09:37:21;13.88;;;6.95;;
73699;SDS011;62005;50.082;8.988;2024-03-08T09:39:47;15.00;;;8.40;;
73699;SDS011;62005;50.082;8.988;2024-03-08T09:42:13;12.25;;;7.03;;
73699;SDS011;62005;50.082;8.988;2024-03-08T09:44:45;13.00;;;6.55;;
73699;SDS011;62005;50.082;8.988;2024-03-08T09:47:12;15.88;;;6.82;;
73699;SDS011;62005;50.082;8.988;2024-03-08T09:49:40;12.75;;;6.70;;
73699;SDS011;62005;50.082;8.988;2024-03-08T09:52:09;14.77;;;7.05;;
73699;SDS011;62005;50.082;8.988;2024-03-08T09:54:35;14.93;;;8.40;;
73699;SDS011;62005;50.082;8.988;2024-03-08T09:57:03;13.80;;;7.07;;
73699;SDS011;62005;50.082;8.988;2024-03-08T09:59:29;14.13;;;6.63;;
73699;SDS011;62005;50.082;8.988;2024-03-08T10:02:15;12.60;;;6.45;;
73699;SDS011;62005;50.082;8.988;2024-03-08T10:04:41;14.35;;;7.05;;
73699;SDS011;62005;50.082;8.988;2024-03-08T10:07:07;15.13;;;6.53;;
73699;SDS011;62005;50.082;8.988;2024-03-08T10:09:33;13.85;;;6.40;;
73699;SDS011;62005;50.082;8.988;2024-03-08T10:11:58;12.13;;;5.68;;
73699;SDS011;62005;50.082;8.988;2024-03-08T10:14:27;11.93;;;6.13;;
73699;SDS011;62005;50.082;8.988;2024-03-08T10:16:58;13.10;;;6.80;;
73699;SDS011;62005;50.082;8.988;2024-03-08T10:19:25;10.95;;;5.97;;
73699;SDS011;62005;50.082;8.988;2024-03-08T10:21:51;11.10;;;5.18;;
73699;SDS011;62005;50.082;8.988;2024-03-08T10:24:24;14.07;;;6.32;;
73699;SDS011;62005;50.082;8.988;2024-03-08T10:26:53;13.48;;;6.38;;
73699;SDS011;62005;50.082;8.988;2024-03-08T10:29:24;13.30;;;8.65;;
73699;SDS011;62005;50.082;8.988;2024-03-08T10:31:50;10.90;;;5.78;;
73699;SDS011;62005;50.082;8.988;2024-03-08T10:34:19;12.73;;;6.10;;
73699;SDS011;62005;50.082;8.988;2024-03-08T10:36:45;11.48;;;5.03;;
73699;SDS011;62005;50.082;8.988;2024-03-08T10:40:02;12.88;;;5.93;;
73699;SDS011;62005;50.082;8.988;2024-03-08T10:42:04;11.40;;;6.88;;
73699;SDS011;62005;50.082;8.988;2024-03-08T10:49:37;14.05;;;6.05;;
73699;SDS011;62005;50.082;8.988;2024-03-08T10:52:04;10.63;;;5.47;;
73699;SDS011;62005;50.082;8.988;2024-03-08T10:54:33;12.77;;;6.10;;
73699;SDS011;62005;50.082;8.988;2024-03-08T10:57:03;13.88;;;6.15;;
73699;SDS011;62005;50.082;8.988;2024-03-08T11:01:56;12.35;;;6.10;;
73699;SDS011;62005;50.082;8.988;2024-03-08T11:04:22;11.77;;;5.93;;
73699;SDS011;62005;50.082;8.988;2024-03-08T11:06:49;10.77;;;6.13;;
73699;SDS011;62005;50.082;8.988;2024-03-08T11:09:30;14.10;;;5.68;;
73699;SDS011;62005;50.082;8.988;2024-03-08T11:14:45;12.07;;;5.75;;
73699;SDS011;62005;50.082;8.988;2024-03-08T11:17:14;10.75;;;6.18;;
73699;SDS011;62005;50.082;8.988;2024-03-08T11:19:48;11.88;;;6.30;;
73699;SDS011;62005;50.082;8.988;2024-03-08T11:22:21;11.32;;;4.95;;
73699;SDS011;62005;50.082;8.988;2024-03-08T11:24:52;10.32;;;5.47;;
73699;SDS011;62005;50.082;8.988;2024-03-08T11:27:17;12.88;;;5.95;;
73699;SDS011;62005;50.082;8.988;2024-03-08T11:29:46;14.25;;;6.22;;
73699;SDS011;62005;50.082;8.988;2024-03-08T11:34:53;13.77;;;6.05;;
73699;SDS011;62005;50.082;8.988;2024-03-08T11:37:19;11.27;;;5.75;;
73699;SDS011;62005;50.082;8.988;2024-03-08T11:39:48;11.77;;;5.53;;
73699;SDS011;62005;50.082;8.988;2024-03-08T11:42:15;10.48;;;5.57;;
73699;SDS011;62005;50.082;8.988;2024-03-08T11:44:45;14.95;;;6.53;;
73699;SDS011;62005;50.082;8.988;2024-03-08T11:47:11;12.55;;;6.82;;
73699;SDS011;62005;50.082;8.988;2024-03-08T11:49:37;14.68;;;6.65;;
73699;SDS011;62005;50.082;8.988;2024-03-08T11:52:04;12.60;;;6.03;;
73699;SDS011;62005;50.082;8.988;2024-03-08T11:54:30;10.82;;;5.25;;
73699;SDS011;62005;50.082;8.988;2024-03-08T11:56:56;13.00;;;6.47;;
73699;SDS011;62005;50.082;8.988;2024-03-08T11:59:26;12.65;;;5.78;;
73699;SDS011;62005;50.082;8.988;2024-03-08T12:02:05;13.02;;;6.05;;
73699;SDS011;62005;50.082;8.988;2024-03-08T12:04:31;13.15;;;5.85;;
73699;SDS011;62005;50.082;8.988;2024-03-08T12:07:00;13.35;;;6.18;;
73699;SDS011;62005;50.082;8.988;2024-03-08T12:09:28;13.50;;;5.80;;
73699;SDS011;62005;50.082;8.988;2024-03-08T12:11:54;13.90;;;5.50;;
73699;SDS011;62005;50.082;8.988;2024-03-08T12:14:19;15.55;;;6.25;;
73699;SDS011;62005;50.082;8.988;2024-03-08T12:16:45;11.93;;;5.60;;
73699;SDS011;62005;50.082;8.988;2024-03-08T12:19:11;14.20;;;6.47;;
73699;SDS011;62005;50.082;8.988;2024-03-08T12:21:37;13.98;;;6.50;;
73699;SDS011;62005;50.082;8.988;2024-03-08T12:24:09;11.15;;;5.70;;
73699;SDS011;62005;50.082;8.988;2024-03-08T12:26:36;11.60;;;5.75;;
73699;SDS011;62005;50.082;8.988;2024-03-08T12:31:50;12.88;;;6.20;;
73699;SDS011;62005;50.082;8.988;2024-03-08T12:34:21;12.70;;;5.93;;
73699;SDS011;62005;50.082;8.988;2024-03-08T12:36:47;13.80;;;5.82;;
73699;SDS011;62005;50.082;8.988;2024-03-08T12:39:16;16.08;;;6.05;;
73699;SDS011;62005;50.082;8.988;2024-03-08T12:41:46;13.27;;;6.25;;
73699;SDS011;62005;50.082;8.988;2024-03-08T12:44:12;13.00;;;6.55;;
73699;SDS011;62005;50.082;8.988;2024-03-08T12:46:38;11.07;;;6.40;;
73699;SDS011;62005;50.082;8.988;2024-03-08T12:49:11;13.10;;;6.18;;
73699;SDS011;62005;50.082;8.988;2024-03-08T12:51:38;12.75;;;6.30;;
73699;SDS011;62005;50.082;8.988;2024-03-08T12:54:07;13.48;;;6.63;;
73699;SDS011;62005;50.082;8.988;2024-03-08T12:56:33;12.50;;;6.13;;
73699;SDS011;62005;50.082;8.988;2024-03-08T12:58:59;13.82;;;6.20;;
73699;SDS011;62005;50.082;8.988;2024-03-08T13:01:26;15.18;;;6.72;;
73699;SDS011;62005;50.082;8.988;2024-03-08T13:03:52;12.18;;;6.50;;
73699;SDS011;62005;50.082;8.988;2024-03-08T13:06:19;14.18;;;7.03;;
73699;SDS011;62005;50.082;8.988;2024-03-08T13:08:48;12.88;;;5.90;;
73699;SDS011;62005;50.082;8.988;2024-03-08T13:11:14;12.95;;;6.30;;
73699;SDS011;62005;50.082;8.988;2024-03-08T13:13:40;14.02;;;5.78;;
73699;SDS011;62005;50.082;8.988;2024-03-08T13:16:06;12.98;;;5.50;;
73699;SDS011;62005;50.082;8.988;2024-03-08T13:18:35;15.07;;;7.78;;
73699;SDS011;62005;50.082;8.988;2024-03-08T13:21:01;12.15;;;5.85;;
73699;SDS011;62005;50.082;8.988;2024-03-08T13:23:33;16.40;;;6.18;;
73699;SDS011;62005;50.082;8.988;2024-03-08T13:26:09;10.48;;;5.13;;
73699;SDS011;62005;50.082;8.988;2024-03-08T13:28:47;13.07;;;5.82;;
73699;SDS011;62005;50.082;8.988;2024-03-08T13:31:17;12.27;;;5.80;;
73699;SDS011;62005;50.082;8.988;2024-03-08T13:33:43;11.88;;;5.88;;
73699;SDS011;62005;50.082;8.988;2024-03-08T13:36:29;12.35;;;5.30;;
73699;SDS011;62005;50.082;8.988;2024-03-08T13:41:40;12.45;;;6.07;;
73699;SDS011;62005;50.082;8.988;2024-03-08T13:44:28;11.73;;;5.53;;
73699;SDS011;62005;50.082;8.988;2024-03-08T13:46:57;13.95;;;5.95;;
73699;SDS011;62005;50.082;8.988;2024-03-08T13:49:26;13.65;;;5.60;;
73699;SDS011;62005;50.082;8.988;2024-03-08T13:51:55;17.00;;;5.93;;
73699;SDS011;62005;50.082;8.988;2024-03-08T13:54:24;14.23;;;6.03;;
73699;SDS011;62005;50.082;8.988;2024-03-08T13:56:55;12.27;;;5.68;;
73699;SDS011;62005;50.082;8.988;2024-03-08T13:59:24;11.10;;;5.68;;
73699;SDS011;62005;50.082;8.988;2024-03-08T14:01:50;12.25;;;5.85;;
73699;SDS011;62005;50.082;8.988;2024-03-08T14:04:15;12.30;;;5.57;;
73699;SDS011;62005;50.082;8.988;2024-03-08T14:06:44;13.32;;;6.25;;
73699;SDS011;62005;50.082;8.988;2024-03-08T14:09:14;12.07;;;5.82;;
73699;SDS011;62005;50.082;8.988;2024-03-08T14:11:45;13.45;;;5.50;;
73699;SDS011;62005;50.082;8.988;2024-03-08T14:14:11;11.55;;;5.05;;
73699;SDS011;62005;50.082;8.988;2024-03-08T14:16:39;13.82;;;5.85;;
73699;SDS011;62005;50.082;8.988;2024-03-08T14:19:05;13.32;;;6.28;;
73699;SDS011;62005;50.082;8.988;2024-03-08T14:21:33;13.75;;;6.00;;
73699;SDS011;62005;50.082;8.988;2024-03-08T14:23:59;13.35;;;6.20;;
73699;SDS011;62005;50.082;8.988;2024-03-08T14:26:24;14.05;;;6.15;;
73699;SDS011;62005;50.082;8.988;2024-03-08T14:28:51;11.52;;;4.82;;
73699;SDS011;62005;50.082;8.988;2024-03-08T14:31:22;14.65;;;6.40;;
73699;SDS011;62005;50.082;8.988;2024-03-08T14:33:50;11.13;;;5.22;;
73699;SDS011;62005;50.082;8.988;2024-03-08T14:36:16;14.13;;;5.10;;
73699;SDS011;62005;50.082;8.988;2024-03-08T14:38:46;11.15;;;5.00;;
73699;SDS011;62005;50.082;8.988;2024-03-08T14:41:14;13.40;;;5.25;;
73699;SDS011;62005;50.082;8.988;2024-03-08T14:43:43;11.05;;;5.22;;
73699;SDS011;62005;50.082;8.988;2024-03-08T14:46:12;14.70;;;5.47;;
73699;SDS011;62005;50.082;8.988;2024-03-08T14:48:46;10.57;;;5.13;;
73699;SDS011;62005;50.082;8.988;2024-03-08T14:51:13;14.15;;;5.72;;
73699;SDS011;62005;50.082;8.988;2024-03-08T14:53:42;11.65;;;4.93;;